Terminal Aerodrome Forecast
Issued by NWS Flagstaff, AZ

Home | Current Version | Previous Version | Text Only | Print | Product List | Glossary On
Versions: 1 2 3 4 5 6 7 8 9 10 11 12 13 14 15 16 17
000
FTUS45 KFGZ 251300 AAA
TAFFLG
TAF AMD
KFLG 251301Z 2513/2612 22011KT P6SM SCT015 BKN025
      TEMPO 2517/2519 22013G23KT BKN015 BKN025
     FM251900 23014G28KT P6SM VCSH BKN012 BKN020 OVC050
      TEMPO 2520/2524 3SM -SHRA BR SCT009 OVC012
     FM260100 23013G19KT 2SM SHRA BR OVC008
     FM260800 24010G18KT 1SM -SHRASN BR OVC006=

USA.gov is the U.S. government's official web portal to all federal, state and local government web resources and services.